Parchment, Michigan
Current Conditions -  °F | °C
As of 8:53 PM on Friday 28 Nov 2014 (Local Time) from KAZO Reporting Station
Broken Clouds Broken Clouds  
Wind Chill: 21°   Ceiling: 10000
Heat Index: 28°   Visibility: 10mi
Dew Point: 19°   Wind: 7mph
Humidity: 69%   Direction: 170°S
Pressure: 30.03"   Gusts: NA
Location:  42.3411°N, 85.532°W
Report Text: KAZO 290153Z 17006KT 10SM BKN100 M02/M07 A3003 RMK AO2 SLP182 T10221072 $
Loading
Personal Weather Stations






























Interactive Weather Map New forecast layout! Learn more

10-Day Weather Forecast

Advertisements
Track Severe Weather on mobile